createdAt,value
2023-03-15T00:02:42.685Z,2.37
2023-03-15T00:05:47.471Z,2.33
2023-03-15T00:08:52.086Z,2.35
2023-03-15T00:11:55.590Z,2.31
2023-03-15T00:15:00.341Z,2.35
2023-03-15T00:18:04.309Z,2.31
2023-03-15T00:21:07.304Z,2.25
2023-03-15T00:24:11.596Z,2.24
2023-03-15T00:27:14.624Z,2.23
2023-03-15T00:30:19.391Z,2.24
2023-03-15T00:33:22.366Z,2.26
2023-03-15T00:36:26.134Z,2.26
2023-03-15T00:39:30.144Z,2.23
2023-03-15T00:42:33.678Z,2.20
2023-03-15T00:45:39.733Z,2.19
2023-03-15T00:48:42.749Z,2.16
2023-03-15T00:51:45.768Z,2.18
2023-03-15T00:54:53.051Z,2.16
2023-03-15T00:57:57.822Z,2.18
2023-03-15T01:01:07.039Z,2.17
2023-03-15T01:04:10.305Z,2.11
2023-03-15T01:07:13.286Z,2.09
2023-03-15T01:10:17.119Z,2.08
2023-03-15T01:13:20.225Z,2.09
2023-03-15T01:16:25.237Z,2.07
2023-03-15T01:19:28.250Z,2.11
2023-03-15T01:22:31.235Z,1.98
2023-03-15T01:25:35.385Z,2.02
2023-03-15T01:28:38.596Z,2.02
2023-03-15T01:31:43.051Z,2.03
2023-03-15T01:34:46.163Z,1.95
2023-03-15T01:37:51.001Z,1.85
2023-03-15T01:40:54.872Z,1.88
2023-03-15T01:43:57.960Z,1.87
2023-03-15T01:47:02.517Z,1.85
2023-03-15T01:50:10.336Z,1.82
2023-03-15T01:53:13.830Z,1.80
2023-03-15T01:56:17.712Z,1.81
2023-03-15T01:59:28.570Z,1.79
2023-03-15T02:02:33.163Z,1.78
2023-03-15T02:05:46.238Z,1.76
2023-03-15T02:08:58.459Z,1.75
2023-03-15T02:12:06.782Z,1.64
2023-03-15T02:15:11.564Z,1.65
2023-03-15T02:18:16.761Z,1.51
2023-03-15T02:21:37.002Z,1.49
2023-03-15T02:24:51.336Z,1.41
2023-03-15T02:27:57.083Z,1.35
2023-03-15T02:31:00.720Z,1.20
2023-03-15T02:34:07.716Z,1.11
2023-03-15T02:37:10.955Z,1.18
2023-03-15T02:40:21.162Z,1.22
2023-03-15T02:43:29.384Z,1.21
2023-03-15T02:46:32.424Z,1.25
2023-03-15T02:49:42.162Z,1.20
2023-03-15T02:52:45.475Z,1.18
2023-03-15T02:55:48.420Z,1.15
2023-03-15T02:58:53.236Z,1.09
2023-03-15T03:01:56.214Z,1.07
2023-03-15T03:04:59.445Z,1.05
2023-03-15T03:08:02.736Z,1.04
2023-03-15T03:11:06.934Z,0.99
2023-03-15T03:14:14.059Z,0.95
2023-03-15T03:17:17.754Z,0.85
2023-03-15T03:20:21.482Z,0.81
2023-03-15T03:23:25.780Z,0.79
2023-03-15T03:26:32.670Z,0.79
2023-03-15T03:29:37.625Z,0.75
2023-03-15T03:32:41.340Z,0.70
2023-03-15T03:35:44.453Z,0.75
2023-03-15T03:38:48.255Z,0.71
2023-03-15T03:41:51.920Z,0.73
2023-03-15T03:44:56.221Z,0.79
2023-03-15T03:48:02.217Z,0.86
2023-03-15T03:51:07.181Z,0.93
2023-03-15T03:54:10.257Z,0.98
2023-03-15T03:57:13.703Z,1.03
2023-03-15T04:00:20.219Z,1.06
2023-03-15T04:03:27.076Z,1.07
2023-03-15T04:06:35.531Z,1.00
2023-03-15T04:09:39.218Z,0.96
2023-03-15T04:12:43.770Z,0.91
2023-03-15T04:15:49.480Z,0.83
2023-03-15T04:18:56.569Z,0.76
2023-03-15T04:22:06.524Z,0.58
2023-03-15T04:25:26.651Z,0.53
2023-03-15T04:28:42.983Z,0.40
2023-03-15T04:32:14.692Z,0.45
2023-03-15T04:35:27.646Z,0.33
2023-03-15T04:38:37.702Z,0.29
2023-03-15T04:41:55.442Z,0.28
2023-03-15T04:45:08.853Z,0.30
2023-03-15T04:48:32.047Z,0.23
2023-03-15T04:52:00.740Z,0.18
2023-03-15T04:55:24.282Z,0.13
2023-03-15T04:58:45.982Z,0.09
2023-03-15T05:02:04.192Z,0.11
2023-03-15T05:05:27.462Z,0.07
2023-03-15T05:08:45.244Z,0.02
2023-03-15T05:12:00.349Z,-0.09
2023-03-15T05:15:25.223Z,-0.05
2023-03-15T05:18:35.581Z,-0.06
2023-03-15T05:21:59.099Z,-0.08
2023-03-15T05:25:20.692Z,-0.03
2023-03-15T05:28:45.331Z,-0.05
2023-03-15T05:32:07.184Z,0.07
2023-03-15T05:35:49.733Z,0.13
2023-03-15T05:39:30.043Z,0.22
2023-03-15T05:42:45.012Z,0.31
2023-03-15T05:45:57.293Z,0.43
2023-03-15T05:49:11.224Z,0.52
2023-03-15T05:52:43.215Z,0.67
2023-03-15T05:56:09.160Z,0.75
2023-03-15T05:59:37.522Z,0.87
2023-03-15T06:03:04.744Z,0.95
2023-03-15T06:06:26.237Z,0.98
2023-03-15T06:09:29.391Z,0.97
2023-03-15T06:12:33.907Z,0.99
2023-03-15T06:15:37.245Z,0.98
2023-03-15T06:18:41.413Z,1.03
2023-03-15T06:21:45.695Z,1.12
2023-03-15T06:24:57.628Z,1.24
2023-03-15T06:28:02.233Z,1.31
2023-03-15T06:31:08.867Z,1.39
2023-03-15T06:34:18.663Z,1.44
2023-03-15T06:37:34.649Z,1.48
2023-03-15T06:40:39.637Z,1.51
2023-03-15T06:43:43.960Z,1.55
2023-03-15T06:46:48.669Z,1.50
2023-03-15T06:49:52.353Z,1.45
2023-03-15T06:52:56.842Z,1.38
2023-03-15T06:56:00.008Z,1.37
2023-03-15T06:59:04.749Z,1.43
2023-03-15T07:02:08.202Z,1.49
2023-03-15T07:05:12.074Z,1.53
2023-03-15T07:08:15.068Z,1.59
2023-03-15T07:11:18.146Z,1.67
2023-03-15T07:14:22.758Z,1.77
2023-03-15T07:17:25.842Z,1.85
2023-03-15T07:20:28.821Z,1.94
2023-03-15T07:23:33.605Z,2.17
2023-03-15T07:26:36.573Z,2.40
2023-03-15T07:29:43.540Z,2.48
2023-03-15T07:32:46.826Z,2.47
2023-03-15T07:35:50.466Z,2.52
2023-03-15T07:38:53.637Z,2.53
2023-03-15T07:41:56.618Z,2.53
2023-03-15T07:45:11.273Z,2.52
2023-03-15T07:48:14.624Z,2.56
2023-03-15T07:51:20.762Z,2.52
2023-03-15T07:54:23.732Z,2.57
2023-03-15T07:57:28.886Z,2.63
2023-03-15T08:00:33.823Z,2.62
2023-03-15T08:03:37.589Z,2.69
2023-03-15T08:06:40.936Z,2.62
2023-03-15T08:09:48.350Z,2.68
2023-03-15T08:12:51.718Z,2.79
2023-03-15T08:15:56.033Z,2.82
2023-03-15T08:18:59.553Z,2.90
2023-03-15T08:22:02.558Z,2.90
2023-03-15T08:25:07.701Z,2.90
2023-03-15T08:28:11.207Z,2.82
2023-03-15T08:31:18.887Z,2.88
2023-03-15T08:34:22.538Z,2.82
2023-03-15T08:37:25.797Z,2.87
2023-03-15T08:40:29.637Z,2.90
2023-03-15T08:43:32.855Z,2.89
2023-03-15T08:46:37.191Z,2.95
2023-03-15T08:49:40.160Z,2.93
2023-03-15T08:52:43.433Z,2.89
2023-03-15T08:55:46.402Z,3.01
2023-03-15T08:58:49.404Z,3.03
2023-03-15T09:01:53.860Z,3.05
2023-03-15T09:04:56.995Z,3.07
2023-03-15T09:08:00.668Z,3.02
2023-03-15T09:11:03.819Z,3.07
2023-03-15T09:14:07.111Z,3.04
2023-03-15T09:17:12.152Z,3.18
2023-03-15T09:20:16.845Z,3.22
2023-03-15T09:23:20.080Z,3.34
2023-03-15T09:26:23.151Z,3.67
2023-03-15T09:29:26.335Z,3.65
2023-03-15T09:32:36.096Z,3.66
2023-03-15T09:35:39.249Z,3.49
2023-03-15T09:38:44.082Z,3.47
2023-03-15T09:41:49.375Z,3.41
2023-03-15T09:45:04.506Z,3.48
2023-03-15T09:48:13.979Z,3.52
2023-03-15T09:51:28.272Z,3.46
2023-03-15T09:54:40.975Z,3.46
2023-03-15T09:57:50.002Z,3.50
2023-03-15T10:00:56.321Z,3.59
2023-03-15T10:04:09.338Z,3.62
2023-03-15T10:07:16.516Z,3.57
2023-03-15T10:10:23.805Z,3.68
2023-03-15T10:13:43.491Z,3.86
2023-03-15T10:16:50.057Z,4.07
2023-03-15T10:20:01.428Z,4.29
2023-03-15T10:23:11.521Z,4.33
2023-03-15T10:26:20.451Z,4.32
2023-03-15T10:29:27.991Z,4.40
2023-03-15T10:32:39.278Z,4.29
2023-03-15T10:35:43.845Z,4.50
2023-03-15T10:38:50.402Z,4.54
2023-03-15T10:41:53.407Z,5.02
2023-03-15T10:44:56.896Z,5.36
2023-03-15T10:48:01.065Z,5.52
2023-03-15T10:51:14.617Z,5.71
2023-03-15T10:54:20.941Z,6.04
2023-03-15T10:57:27.914Z,5.76
2023-03-15T11:00:33.580Z,5.63
2023-03-15T11:03:37.592Z,5.05
2023-03-15T11:06:46.655Z,4.95
2023-03-15T11:09:55.451Z,4.86
2023-03-15T11:13:20.506Z,4.79
2023-03-15T11:16:23.635Z,4.66
2023-03-15T11:19:29.994Z,4.68
2023-03-15T11:22:34.343Z,4.61
2023-03-15T11:25:37.371Z,4.80
2023-03-15T11:28:49.032Z,5.41
2023-03-15T11:31:53.532Z,5.24
2023-03-15T11:35:02.346Z,5.49
2023-03-15T11:38:17.228Z,6.10
2023-03-15T11:41:31.095Z,6.38
2023-03-15T11:44:40.656Z,6.75
2023-03-15T11:47:50.411Z,6.53
2023-03-15T11:50:54.722Z,6.31
2023-03-15T12:31:50.463Z,7.53
2023-03-15T12:35:53.375Z,7.61
2023-03-15T12:40:05.187Z,7.54
2023-03-15T12:49:30.390Z,7.35
2023-03-15T12:58:09.054Z,6.49
2023-03-15T13:01:48.199Z,6.39
2023-03-15T13:10:56.145Z,6.95
2023-03-15T13:14:16.087Z,7.34
2023-03-15T13:17:35.028Z,7.60
2023-03-15T13:20:42.954Z,7.88
2023-03-15T13:24:00.701Z,8.00
2023-03-15T13:27:12.424Z,8.54
2023-03-15T13:30:38.846Z,8.08
2023-03-15T13:33:41.992Z,8.37
2023-03-15T13:36:48.141Z,8.29
2023-03-15T13:40:01.442Z,8.02
2023-03-15T13:43:04.463Z,8.19
2023-03-15T13:46:09.496Z,8.68
2023-03-15T13:49:13.619Z,8.21
2023-03-15T13:52:16.738Z,7.50
2023-03-15T13:55:36.054Z,7.18
2023-03-15T13:58:40.228Z,6.83
2023-03-15T14:01:44.718Z,5.96
2023-03-15T14:04:55.634Z,5.70
2023-03-15T14:08:04.631Z,5.66
2023-03-15T14:11:13.544Z,5.79
2023-03-15T14:14:26.157Z,6.15
2023-03-15T14:17:47.509Z,6.71
2023-03-15T14:21:03.840Z,7.34
2023-03-15T14:24:08.611Z,7.36
2023-03-15T14:27:19.959Z,7.61
2023-03-15T14:30:28.866Z,7.85
2023-03-15T14:33:45.234Z,7.75
2023-03-15T14:36:54.206Z,7.66
2023-03-15T14:40:20.952Z,7.50
2023-03-15T14:43:29.335Z,8.01
2023-03-15T14:46:35.559Z,7.92
2023-03-15T14:49:42.421Z,8.21
2023-03-15T14:52:49.176Z,7.87
2023-03-15T14:55:52.844Z,8.07
2023-03-15T14:58:58.836Z,7.76
2023-03-15T15:02:02.884Z,7.74
2023-03-15T15:05:21.776Z,8.03
2023-03-15T15:08:25.589Z,8.34
2023-03-15T15:11:30.265Z,8.00
2023-03-15T15:14:33.250Z,7.96
2023-03-15T15:17:37.321Z,7.61
2023-03-15T15:20:43.282Z,7.31
2023-03-15T15:23:58.573Z,7.27
2023-03-15T15:27:05.748Z,7.03
2023-03-15T15:30:16.361Z,6.91
2023-03-15T15:33:20.314Z,6.96
2023-03-15T15:36:29.891Z,6.74
2023-03-15T15:39:34.065Z,6.73
2023-03-15T15:42:37.231Z,6.58
2023-03-15T15:45:41.528Z,6.63
2023-03-15T15:48:44.630Z,6.58
2023-03-15T15:51:50.206Z,6.46
2023-03-15T15:54:55.419Z,6.51
2023-03-15T15:57:58.788Z,6.30
2023-03-15T16:01:01.828Z,6.31
2023-03-15T16:04:05.024Z,6.34
2023-03-15T16:07:11.600Z,6.34
2023-03-15T16:10:22.084Z,6.28
2023-03-15T16:13:25.071Z,6.26
2023-03-15T16:16:28.272Z,6.20
2023-03-15T16:19:31.250Z,6.14
2023-03-15T16:22:40.297Z,5.11
2023-03-15T16:25:53.846Z,4.12
2023-03-15T16:28:56.845Z,3.71
2023-03-15T16:32:16.454Z,3.59
2023-03-15T16:35:23.321Z,3.65
2023-03-15T16:38:32.492Z,3.78
2023-03-15T16:41:39.909Z,3.69
2023-03-15T16:44:43.243Z,3.65
2023-03-15T16:47:46.455Z,3.78
2023-03-15T16:50:50.110Z,3.72
2023-03-15T16:54:08.529Z,3.63
2023-03-15T16:57:22.457Z,3.58
2023-03-15T17:00:26.310Z,3.66
2023-03-15T17:03:29.994Z,3.61
2023-03-15T17:06:33.818Z,3.46
2023-03-15T17:09:38.322Z,3.55
2023-03-15T17:12:42.358Z,3.72
2023-03-15T17:15:45.420Z,3.66
2023-03-15T17:18:49.342Z,3.78
2023-03-15T17:21:53.053Z,3.87
2023-03-15T17:24:57.401Z,3.78
2023-03-15T17:28:01.149Z,3.75
2023-03-15T17:31:23.955Z,3.77
2023-03-15T17:34:27.094Z,3.81
2023-03-15T17:37:33.778Z,3.82
2023-03-15T17:40:38.940Z,3.82
2023-03-15T17:43:43.818Z,3.78
2023-03-15T17:46:46.894Z,3.74
2023-03-15T17:49:50.224Z,3.70
2023-03-15T17:52:59.341Z,3.76
2023-03-15T17:56:03.723Z,3.69
2023-03-15T17:59:07.032Z,3.70
2023-03-15T18:02:16.432Z,3.66
2023-03-15T18:05:22.531Z,3.61
2023-03-15T18:08:25.691Z,3.63
2023-03-15T18:11:35.545Z,3.66
2023-03-15T18:14:38.989Z,3.62
2023-03-15T18:17:42.428Z,3.59
2023-03-15T18:20:46.098Z,3.60
2023-03-15T18:23:49.741Z,3.57
2023-03-15T18:26:54.513Z,3.52
2023-03-15T18:30:00.252Z,3.48
2023-03-15T18:33:05.713Z,3.46
2023-03-15T18:36:09.803Z,3.50
2023-03-15T18:39:13.206Z,3.49
2023-03-15T18:42:17.580Z,3.43
2023-03-15T18:45:23.543Z,3.45
2023-03-15T18:48:39.720Z,3.44
2023-03-15T18:51:43.311Z,3.38
2023-03-15T18:54:46.252Z,3.34
2023-03-15T18:57:52.031Z,3.32
2023-03-15T19:00:54.994Z,3.32
2023-03-15T19:03:58.108Z,3.26
2023-03-15T19:07:01.091Z,3.24
2023-03-15T19:10:05.018Z,3.16
2023-03-15T19:13:09.444Z,3.17
2023-03-15T19:16:12.426Z,3.08
2023-03-15T19:19:15.820Z,3.13
2023-03-15T19:22:18.879Z,3.12
2023-03-15T19:25:24.250Z,3.08
2023-03-15T19:28:31.576Z,3.12
2023-03-15T19:31:34.751Z,3.04
2023-03-15T19:34:40.670Z,3.08
2023-03-15T19:37:49.608Z,3.08
2023-03-15T19:40:55.218Z,3.09
2023-03-15T19:44:05.172Z,3.04
2023-03-15T19:47:09.317Z,3.02
2023-03-15T19:50:14.426Z,2.92
2023-03-15T19:58:49.681Z,2.86
2023-03-15T20:01:54.442Z,2.82
2023-03-15T20:10:26.607Z,2.70
2023-03-15T20:13:29.796Z,2.70
2023-03-15T20:16:34.439Z,2.77
2023-03-15T20:19:42.194Z,2.74
2023-03-15T20:22:46.583Z,2.73
2023-03-15T20:25:50.202Z,2.66
2023-03-15T20:28:53.162Z,2.79
2023-03-15T20:31:56.091Z,2.69
2023-03-15T20:35:02.132Z,2.73
2023-03-15T20:38:08.448Z,2.59
2023-03-15T20:41:13.724Z,2.56
2023-03-15T20:44:16.724Z,2.58
2023-03-15T20:47:19.802Z,2.55
2023-03-15T20:50:24.680Z,2.67
2023-03-15T20:53:29.163Z,2.67
2023-03-15T20:56:34.215Z,2.54
2023-03-15T20:59:37.228Z,2.58
2023-03-15T21:02:41.367Z,2.52
2023-03-15T21:05:46.781Z,2.41
2023-03-15T21:08:50.571Z,2.31
2023-03-15T21:11:53.485Z,2.29
2023-03-15T21:14:56.451Z,2.18
2023-03-15T21:17:59.391Z,2.16
2023-03-15T21:21:05.938Z,2.05
2023-03-15T21:24:09.055Z,2.05
2023-03-15T21:27:12.353Z,1.99
2023-03-15T21:30:16.358Z,1.97
2023-03-15T21:33:19.657Z,1.97
2023-03-15T21:36:23.982Z,1.87
2023-03-15T21:39:27.024Z,1.91
2023-03-15T21:42:29.956Z,1.91
2023-03-15T21:45:33.054Z,1.82
2023-03-15T21:48:37.432Z,1.84
2023-03-15T21:51:45.766Z,1.78
2023-03-15T21:54:48.787Z,1.78
2023-03-15T21:57:51.977Z,1.71
2023-03-15T22:00:59.243Z,1.64
2023-03-15T22:04:02.298Z,1.61
2023-03-15T22:07:06.638Z,1.65
2023-03-15T22:10:11.969Z,1.66
2023-03-15T22:13:15.088Z,1.65
2023-03-15T22:16:18.383Z,1.51
2023-03-15T22:19:21.511Z,1.52
2023-03-15T22:22:25.759Z,1.51
2023-03-15T22:25:28.715Z,1.53
2023-03-15T22:28:33.063Z,1.48
2023-03-15T22:31:38.412Z,1.54
2023-03-15T22:34:41.499Z,1.51
2023-03-15T22:37:46.024Z,1.61
2023-03-15T22:40:49.420Z,1.61
2023-03-15T22:43:53.489Z,1.58
2023-03-15T22:46:56.984Z,1.58
2023-03-15T22:49:59.941Z,1.64
2023-03-15T22:53:04.292Z,1.65
2023-03-15T22:56:07.598Z,1.61
2023-03-15T22:59:10.564Z,1.64
2023-03-15T23:02:13.575Z,1.61
2023-03-15T23:05:17.889Z,1.56
2023-03-15T23:08:22.985Z,1.58
2023-03-15T23:11:26.120Z,1.56
2023-03-15T23:14:29.601Z,1.45
2023-03-15T23:17:32.759Z,1.48
2023-03-15T23:20:35.965Z,1.45
2023-03-15T23:23:40.645Z,1.39
2023-03-15T23:26:43.964Z,1.36
2023-03-15T23:29:54.413Z,1.35
2023-03-15T23:32:59.693Z,1.34
2023-03-15T23:36:03.263Z,1.31
2023-03-15T23:39:08.833Z,1.34
2023-03-15T23:42:12.573Z,1.29
2023-03-15T23:45:17.018Z,1.20
2023-03-15T23:48:20.371Z,1.13
2023-03-15T23:51:23.751Z,1.07
2023-03-15T23:54:28.422Z,1.01
2023-03-15T23:57:32.684Z,0.93
